Humidity-temperature Sensor

Selected Measurement Type: Air Temperature

 
Air Temperature [°C]     6 entries per hour
Showing data from 8/13/2017 (00:00:00 Z) to 8/12/2017 (00:01:00 Z)
Previous Next [ Day | 3-Days | 7-Days ]
First Last
Prev [ Day | 3-Days | 7-Days ] Next
First Last

Start Time:     :
End Time:     :     
Time (in GMT) :00 :50 :40 :30 :20 :10
Previous Next [ Day | 3-Days | 7-Days ]
First Last
Prev [ Day | 3-Days | 7-Days ] Next
First Last


123 => good data
MM => data is determined as missing
-- => data not received/configured
Back to Top Back to Top
8/13/2017 00:00 to 23:10 29.00 29.06 28.96 28.84 28.81 28.83
8/12/2017 23:00 to 22:10 28.80 28.92 28.92 28.98 28.93 28.92
8/12/2017 22:00 to 21:10 -- -- -- -- -- --
8/12/2017 21:00 to 20:10 29.05 28.95 29.06 29.07 28.80 28.79
8/12/2017 20:00 to 19:10 -- -- -- -- -- --
8/12/2017 19:00 to 18:10 29.04 29.04 29.20 29.15 29.14 28.92
8/12/2017 18:00 to 17:10 28.87 28.55 28.30 28.01 27.98 27.92
8/12/2017 17:00 to 16:10 27.89 27.80 27.79 27.97 27.97 27.61
8/12/2017 16:00 to 15:10 26.77 27.39 27.44 27.78 27.93 27.93
8/12/2017 15:00 to 14:10 27.79 28.19 28.16 28.13 27.90 27.67
8/12/2017 14:00 to 13:10 27.33 27.20 26.63 27.02 28.09 28.10
8/12/2017 13:00 to 12:10 27.95 27.97 28.00 27.85 27.99 28.08
8/12/2017 12:00 to 11:10 27.94 27.96 27.94 27.87 27.54 27.39
8/12/2017 11:00 to 10:10 27.29 27.90 27.71 27.78 28.18 28.14
8/12/2017 10:00 to 9:10 28.03 27.96 27.98 28.00 27.88 27.66
8/12/2017 09:00 to 8:10 27.74 27.62 27.60 27.45 27.24 26.75
8/12/2017 08:00 to 7:10 26.31 27.25 27.72 27.53 27.38 27.30
8/12/2017 07:00 to 6:10 27.24 27.23 27.37 27.59 27.60 28.17
8/12/2017 06:00 to 5:10 28.70 28.55 28.55 28.57 28.58 28.46
8/12/2017 05:00 to 4:10 28.36 28.17 28.34 27.79 27.62 28.05
8/12/2017 04:00 to 3:10 27.98 27.88 27.86 27.58 27.61 27.01
8/12/2017 03:00 to 2:10 26.56 26.19 25.92 25.75 25.45 26.28
8/12/2017 02:00 to 1:10 25.55 26.33 26.63 26.47 26.32 26.18
8/12/2017 01:00 to 0:10 26.62 26.88 28.51 28.71 28.84 28.45